Time;durP1;ratioP1;P1;durP2;ratioP2;P2;SDS_P1;SDS_P2;PMS_P1;PMS_P2;Temp;Humidity;BMP_temperature;BMP_pressure;BME280_temperature;BME280_humidity;BME280_pressure;Samples;Min_cycle;Max_cycle;Signal;HPM_P1;HPM_P2
2023/01/02 00:02:05;;;;;;;2.90;1.23;;;;;;;13.64;64.33;98254.72;5035553;28;20229;-70
2023/01/02 00:04:32;;;;;;;1.73;1.37;;;;;;;13.52;64.79;98248.59;5035359;28;20206;-70
2023/01/02 00:06:58;;;;;;;4.23;1.40;;;;;;;13.48;65.50;98239.41;5036032;28;20213;-70
2023/01/02 00:09:24;;;;;;;2.53;1.50;;;;;;;13.45;65.14;98239.84;5034508;28;20226;-70
2023/01/02 00:11:51;;;;;;;3.00;1.23;;;;;;;13.42;65.42;98235.78;5035141;28;20287;-70
2023/01/02 00:14:17;;;;;;;1.80;1.30;;;;;;;13.55;65.01;98224.06;5034916;28;20202;-70
2023/01/02 00:16:43;;;;;;;2.90;1.23;;;;;;;13.41;65.98;98234.19;5034838;28;20554;-70
2023/01/02 00:19:10;;;;;;;2.27;1.40;;;;;;;13.32;67.37;98234.75;5034788;28;20569;-70
2023/01/02 00:21:36;;;;;;;1.23;1.03;;;;;;;13.21;67.98;98232.91;5035032;28;20584;-70
2023/01/02 00:24:03;;;;;;;4.07;1.47;;;;;;;13.25;67.23;98228.72;5035026;28;20205;-70
2023/01/02 00:26:30;;;;;;;1.70;1.33;;;;;;;13.25;66.72;98229.50;5034991;28;20206;-70
2023/01/02 00:28:56;;;;;;;2.27;1.20;;;;;;;13.34;66.86;98227.34;5034520;28;20723;-70
2023/01/02 00:31:23;;;;;;;4.40;1.47;;;;;;;13.74;64.25;98222.91;5034529;28;20230;-70
2023/01/02 00:33:49;;;;;;;4.27;1.87;;;;;;;13.51;65.80;98218.38;5034506;28;20673;-70
2023/01/02 00:36:16;;;;;;;2.43;1.87;;;;;;;13.37;65.54;98211.66;5034774;28;20641;-70
2023/01/02 00:38:42;;;;;;;2.40;2.20;;;;;;;13.23;66.69;98207.59;5034719;28;20209;-70
2023/01/02 00:41:09;;;;;;;3.60;2.00;;;;;;;13.05;68.33;98207.69;5034300;28;20226;-70
2023/01/02 00:43:36;;;;;;;2.60;2.40;;;;;;;12.85;68.82;98201.81;5034586;28;20567;-70
2023/01/02 00:46:02;;;;;;;3.30;2.07;;;;;;;12.86;69.33;98198.13;5034248;28;20661;-70
2023/01/02 00:48:29;;;;;;;3.20;1.83;;;;;;;12.67;70.85;98204.59;5034481;28;20231;-70
2023/01/02 00:50:55;;;;;;;2.53;2.13;;;;;;;12.55;71.96;98205.56;5034395;28;20236;-70
2023/01/02 00:53:21;;;;;;;4.00;2.40;;;;;;;12.43;71.42;98210.88;5034139;28;20292;-70
2023/01/02 00:55:48;;;;;;;3.33;2.30;;;;;;;12.35;71.91;98200.50;5034128;28;20691;-70
2023/01/02 00:58:14;;;;;;;3.77;2.17;;;;;;;12.25;73.00;98210.91;5034301;28;20235;-70
2023/01/02 01:00:40;;;;;;;2.90;2.33;;;;;;;12.21;72.74;98215.06;5034230;28;20210;-70
2023/01/02 01:03:07;;;;;;;3.20;2.47;;;;;;;12.25;72.10;98221.56;5034223;28;20205;-70
2023/01/02 01:05:33;;;;;;;3.10;2.37;;;;;;;12.18;71.65;98226.19;5034214;28;20211;-70
2023/01/02 01:08:00;;;;;;;5.83;2.63;;;;;;;12.15;73.05;98229.31;5033811;28;20307;-70
2023/01/02 01:10:26;;;;;;;4.80;2.50;;;;;;;12.08;74.29;98238.41;5034133;28;20206;-70
2023/01/02 01:12:52;;;;;;;3.83;2.40;;;;;;;12.09;72.95;98232.88;5034020;28;20226;-70
2023/01/02 01:15:19;;;;;;;3.83;2.60;;;;;;;12.09;73.60;98235.53;5034070;28;20201;-70
2023/01/02 01:17:45;;;;;;;4.63;2.47;;;;;;;12.12;73.44;98234.28;5033927;28;20209;-70
2023/01/02 01:20:12;;;;;;;3.33;2.13;;;;;;;12.20;73.03;98239.31;5033556;28;20206;-70
2023/01/02 01:22:38;;;;;;;3.03;2.20;;;;;;;12.06;75.35;98235.97;5032959;28;20234;-70
2023/01/02 01:25:05;;;;;;;3.70;2.10;;;;;;;12.03;74.31;98233.75;5033797;28;20214;-70
2023/01/02 01:27:32;;;;;;;3.67;1.97;;;;;;;12.12;73.04;98231.59;5033864;28;20212;-70
2023/01/02 01:29:58;;;;;;;2.47;2.10;;;;;;;12.10;74.07;98233.66;5033747;28;20229;-70
2023/01/02 01:32:24;;;;;;;2.63;2.40;;;;;;;11.98;75.22;98230.94;5033730;28;20228;-70
2023/01/02 01:34:51;;;;;;;4.97;2.33;;;;;;;12.03;72.84;98247.06;5033446;28;20666;-70
2023/01/02 01:37:17;;;;;;;5.63;2.30;;;;;;;11.95;75.33;98242.06;5033732;28;20235;-70
2023/01/02 01:39:43;;;;;;;3.63;2.20;;;;;;;11.88;73.33;98246.63;5033675;28;20206;-70
2023/01/02 01:42:13;;;;;;;3.33;2.23;;;;;;;11.81;77.28;98251.25;5033607;28;20259;-70
2023/01/02 01:44:55;;;;;;;3.53;1.90;;;;;;;11.76;76.91;98256.41;5033344;28;20210;-70
2023/01/02 01:47:27;;;;;;;3.00;2.00;;;;;;;11.68;76.47;98258.53;5033638;28;20216;-70
2023/01/02 01:50:04;;;;;;;4.93;2.23;;;;;;;11.71;77.32;98250.13;5033565;28;20233;-70
2023/01/02 01:52:33;;;;;;;2.83;2.17;;;;;;;11.71;77.32;98250.91;5033196;28;20229;-70
2023/01/02 01:55:07;;;;;;;2.33;1.83;;;;;;;11.71;77.29;98242.94;5033474;28;20209;-70
2023/01/02 01:57:43;;;;;;;5.40;2.17;;;;;;;11.81;76.05;98240.59;5032413;28;20202;-70
2023/01/02 02:00:10;;;;;;;2.80;2.00;;;;;;;11.78;76.10;98251.69;5033534;28;20193;-70
2023/01/02 02:02:41;;;;;;;4.00;2.30;;;;;;;11.58;78.62;98245.69;5033325;28;20226;-70
2023/01/02 02:05:11;;;;;;;3.50;2.63;;;;;;;11.59;76.50;98254.50;5033443;28;20207;-70
2023/01/02 02:07:42;;;;;;;3.60;2.10;;;;;;;11.59;77.57;98250.00;5033327;28;20205;-70
2023/01/02 02:10:10;;;;;;;5.10;2.47;;;;;;;11.56;78.94;98246.94;5032216;28;20218;-70
2023/01/02 02:12:36;;;;;;;2.67;2.20;;;;;;;11.67;76.77;98238.28;5032102;28;20244;-70
2023/01/02 02:15:04;;;;;;;3.63;2.23;;;;;;;11.64;77.23;98233.38;5033289;28;20208;-70
2023/01/02 02:18:05;;;;;;;2.73;2.10;;;;;;;11.60;76.83;98237.53;5033341;28;20216;-70
2023/01/02 02:20:37;;;;;;;3.27;2.20;;;;;;;11.53;78.66;98232.22;5033273;28;20214;-70
2023/01/02 02:23:42;;;;;;;5.00;2.67;;;;;;;11.54;78.02;98235.72;5033012;28;20220;-70
2023/01/02 02:26:11;;;;;;;3.20;2.87;;;;;;;11.53;77.81;98221.59;5033351;28;20191;-70
2023/01/02 02:29:15;;;;;;;4.17;2.23;;;;;;;11.47;78.14;98222.47;5033161;28;20254;-71
2023/01/02 02:31:54;;;;;;;3.70;2.80;;;;;;;11.40;78.97;98224.38;5033131;28;20224;-70
2023/01/02 02:34:39;;;;;;;5.47;2.73;;;;;;;11.37;78.74;98203.53;5036794;28;20653;-70
2023/01/02 02:37:16;;;;;;;4.87;2.70;;;;;;;11.24;80.77;98203.66;5037011;28;20195;-70
2023/01/02 02:40:08;;;;;;;4.17;2.77;;;;;;;11.27;79.69;98202.41;5037039;28;20185;-70
2023/01/02 02:43:07;;;;;;;5.57;2.97;;;;;;;11.17;80.93;98202.09;5020191;28;20234;-70
2023/01/02 02:46:01;;;;;;;3.30;2.70;;;;;;;11.09;81.64;98200.53;5036884;28;20203;-70
2023/01/02 02:49:03;;;;;;;4.53;2.97;;;;;;;11.00;82.88;98194.66;5035730;28;20573;-70
2023/01/02 02:51:41;;;;;;;4.10;3.00;;;;;;;10.94;82.71;98182.25;5036633;28;20237;-70
2023/01/02 02:54:20;;;;;;;5.03;2.93;;;;;;;10.94;82.80;98190.22;5035583;28;20199;-70
2023/01/02 02:56:49;;;;;;;4.47;2.90;;;;;;;10.92;84.88;98191.47;5035506;28;20206;-70
2023/01/02 02:59:16;;;;;;;6.57;3.13;;;;;;;10.83;86.57;98180.31;5036323;28;20668;-70
2023/01/02 03:01:42;;;;;;;6.20;3.50;;;;;;;10.79;83.85;98184.44;5036536;28;20231;-70
2023/01/02 03:04:17;;;;;;;6.63;3.40;;;;;;;10.71;84.44;98179.38;5037320;28;20216;-70
2023/01/02 03:06:52;;;;;;;4.93;3.50;;;;;;;10.62;86.03;98178.00;5035416;28;20190;-69
2023/01/02 03:09:27;;;;;;;6.37;3.37;;;;;;;10.61;85.33;98168.41;5036045;28;20210;-70
2023/01/02 03:11:56;;;;;;;5.07;3.10;;;;;;;10.64;84.69;98165.28;5036383;28;20269;-70
2023/01/02 03:14:38;;;;;;;6.13;3.10;;;;;;;10.56;86.55;98170.91;5036801;28;20653;-70
2023/01/02 03:17:10;;;;;;;5.07;3.70;;;;;;;10.63;85.49;98170.81;5036331;28;20190;-70
2023/01/02 03:19:42;;;;;;;3.33;2.80;;;;;;;10.69;84.19;98173.44;5034783;28;20626;-70
2023/01/02 03:22:17;;;;;;;6.90;3.23;;;;;;;10.68;84.59;98174.47;5035843;28;20285;-70
2023/01/02 03:24:45;;;;;;;5.03;3.10;;;;;;;10.72;85.98;98169.53;5036155;28;20190;-70
2023/01/02 03:27:19;;;;;;;4.07;3.23;;;;;;;10.74;86.34;98168.31;5036095;28;20206;-70
2023/01/02 03:29:51;;;;;;;3.93;3.13;;;;;;;10.87;83.82;98175.34;5034529;28;20789;-70
2023/01/02 03:32:23;;;;;;;5.73;2.77;;;;;;;10.90;84.49;98170.41;5036000;28;20232;-70
2023/01/02 03:34:51;;;;;;;3.20;1.97;;;;;;;11.08;82.92;98159.81;5036043;28;20187;-70
2023/01/02 03:37:26;;;;;;;3.13;2.70;;;;;;;11.09;82.11;98166.75;5035630;28;20293;-70
2023/01/02 03:39:57;;;;;;;6.33;2.80;;;;;;;11.05;82.22;98181.50;5035879;28;20284;-69
2023/01/02 03:42:30;;;;;;;3.60;2.27;;;;;;;11.14;81.11;98182.88;5035383;28;20226;-70
2023/01/02 03:45:09;;;;;;;4.67;2.10;;;;;;;11.19;80.07;98183.00;5034661;28;20200;-70
2023/01/02 03:47:42;;;;;;;3.50;1.87;;;;;;;11.26;79.99;98176.84;5035759;28;20194;-70
2023/01/02 03:50:15;;;;;;;2.90;1.80;;;;;;;11.35;79.73;98172.84;5035263;28;20217;-70
2023/01/02 03:52:41;;;;;;;3.57;1.60;;;;;;;11.63;76.05;98170.53;5035482;28;20589;-70
2023/01/02 03:55:08;;;;;;;2.30;1.47;;;;;;;11.64;77.54;98169.47;5035203;28;20671;-70
2023/01/02 03:58:11;;;;;;;2.50;1.60;;;;;;;11.70;76.37;98174.72;5035324;28;20214;-70
2023/01/02 04:00:49;;;;;;;3.03;1.30;;;;;;;12.05;73.48;98175.72;5035403;28;20196;-70
2023/01/02 04:03:40;;;;;;;2.00;1.17;;;;;;;12.38;70.72;98173.41;5034297;28;20197;-70
2023/01/02 04:06:15;;;;;;;2.37;1.20;;;;;;;12.54;69.62;98178.13;5035313;28;20573;-70
2023/01/02 04:08:52;;;;;;;4.33;1.20;;;;;;;12.62;68.61;98184.97;5035178;28;20206;-70
2023/01/02 04:11:21;;;;;;;1.53;1.10;;;;;;;12.78;68.25;98184.28;5035212;28;20234;-70
2023/01/02 04:13:59;;;;;;;2.30;1.10;;;;;;;12.66;68.55;98186.13;5035247;28;20589;-70
2023/01/02 04:16:31;;;;;;;3.87;1.20;;;;;;;12.67;68.97;98177.91;5034018;28;20194;-70
2023/01/02 04:19:06;;;;;;;3.03;1.30;;;;;;;12.90;66.89;98175.28;5033926;28;20198;-70
2023/01/02 04:21:38;;;;;;;3.87;1.37;;;;;;;12.80;67.71;98175.00;5033472;28;20236;-70
2023/01/02 04:24:09;;;;;;;3.60;1.40;;;;;;;12.74;68.16;98172.44;5034965;28;20208;-70
2023/01/02 04:27:15;;;;;;;1.30;1.20;;;;;;;12.68;70.11;98168.03;5033747;28;20257;-70
2023/01/02 04:29:41;;;;;;;2.47;1.10;;;;;;;12.59;68.99;98167.56;5033318;28;20673;-70
2023/01/02 04:32:21;;;;;;;4.40;1.60;;;;;;;12.65;68.36;98161.31;5034270;28;20239;-70
2023/01/02 04:34:49;;;;;;;2.87;1.33;;;;;;;12.69;67.78;98161.66;5034670;28;20196;-69
2023/01/02 04:37:36;;;;;;;2.30;1.50;;;;;;;12.63;68.49;98149.25;5034362;28;20687;-70
2023/01/02 04:40:10;;;;;;;2.70;1.40;;;;;;;12.67;67.67;98151.25;5034600;28;20189;-70
2023/01/02 04:42:37;;;;;;;4.60;1.63;;;;;;;12.66;68.12;98146.94;5034484;28;20225;-70
2023/01/02 04:45:03;;;;;;;2.40;1.27;;;;;;;12.53;68.70;98151.66;5034405;28;20210;-70
2023/01/02 04:47:30;;;;;;;2.43;1.47;;;;;;;12.52;68.63;98148.19;5034145;28;20229;-70
2023/01/02 04:49:56;;;;;;;3.47;1.50;;;;;;;12.51;69.37;98143.88;5034352;28;20308;-70
2023/01/02 04:52:22;;;;;;;1.63;1.20;;;;;;;12.40;69.62;98150.03;5034348;28;20230;-70
2023/01/02 04:54:49;;;;;;;1.67;1.40;;;;;;;12.31;69.89;98155.88;5033893;28;20214;-70
2023/01/02 04:57:15;;;;;;;2.70;1.37;;;;;;;12.34;70.40;98147.44;5034238;28;20209;-70
2023/01/02 04:59:41;;;;;;;3.03;1.30;;;;;;;12.33;69.92;98157.28;5034250;28;20209;-70
2023/01/02 05:02:08;;;;;;;1.83;1.37;;;;;;;12.29;70.04;98153.44;5033723;28;20236;-70
2023/01/02 05:04:34;;;;;;;2.90;1.70;;;;;;;12.22;71.27;98163.41;5033500;28;20215;-70
2023/01/02 05:07:02;;;;;;;3.63;1.67;;;;;;;12.18;71.22;98154.25;5034277;28;20221;-70
2023/01/02 05:09:28;;;;;;;4.03;1.50;;;;;;;12.06;71.45;98158.69;5033897;28;20233;-70
2023/01/02 05:11:55;;;;;;;2.50;1.33;;;;;;;12.18;72.03;98162.22;5033659;28;20237;-70
2023/01/02 05:14:21;;;;;;;2.70;1.30;;;;;;;11.95;72.82;98162.13;5033906;28;20216;-70
2023/01/02 05:16:47;;;;;;;4.83;1.67;;;;;;;11.93;72.37;98161.53;5033369;28;20220;-70
2023/01/02 05:19:14;;;;;;;5.43;1.53;;;;;;;11.93;72.22;98155.41;5033432;28;20542;-70
2023/01/02 05:24:26;;;;;;;2.87;1.40;;;;;;;11.88;72.09;98169.38;5033212;28;20175;-70
2023/01/02 05:26:53;;;;;;;2.53;1.40;;;;;;;11.72;73.16;98171.84;5033524;28;20211;-69
2023/01/02 05:29:19;;;;;;;3.00;1.47;;;;;;;11.72;72.59;98163.84;5033215;28;20225;-70
2023/01/02 05:31:46;;;;;;;2.87;1.77;;;;;;;11.67;72.54;98179.69;5033461;28;20233;-70
2023/01/02 05:34:14;;;;;;;3.30;1.57;;;;;;;11.74;72.48;98172.44;5033444;28;20212;-70
2023/01/02 05:36:41;;;;;;;3.03;1.40;;;;;;;11.57;75.73;98168.72;5033326;28;20216;-70
2023/01/02 05:39:10;;;;;;;2.83;1.80;;;;;;;11.60;73.53;98176.28;5032841;28;20786;-70
2023/01/02 05:41:38;;;;;;;3.23;1.87;;;;;;;11.65;73.50;98177.25;5033031;28;20256;-70
2023/01/02 05:44:07;;;;;;;4.33;1.80;;;;;;;11.65;73.40;98163.09;5032664;28;20282;-70
2023/01/02 05:46:34;;;;;;;3.40;1.90;;;;;;;11.51;74.87;98165.09;5032924;28;20211;-70
2023/01/02 05:49:00;;;;;;;5.13;1.90;;;;;;;11.50;74.48;98165.31;5033571;28;20217;-70
2023/01/02 05:51:27;;;;;;;4.87;2.07;;;;;;;11.40;75.32;98170.34;5033273;28;20232;-70
2023/01/02 05:53:54;;;;;;;3.63;1.83;;;;;;;11.26;77.09;98171.50;5032921;28;20208;-70
2023/01/02 05:56:20;;;;;;;3.73;2.00;;;;;;;11.31;76.35;98169.00;5033389;28;20211;-70
2023/01/02 05:58:49;;;;;;;4.90;1.90;;;;;;;11.19;76.84;98160.94;5032845;28;20553;-70
2023/01/02 06:01:21;;;;;;;5.43;2.20;;;;;;;11.17;76.29;98165.66;5032893;28;20222;-71
2023/01/02 06:03:49;;;;;;;3.97;2.27;;;;;;;11.16;76.94;98166.69;5032834;28;20196;-69
2023/01/02 06:06:17;;;;;;;4.20;2.27;;;;;;;11.09;76.91;98165.94;5032767;28;20207;-70
2023/01/02 06:08:43;;;;;;;5.37;2.47;;;;;;;10.88;79.90;98176.97;5035983;28;20701;-70
2023/01/02 06:11:10;;;;;;;5.43;2.43;;;;;;;10.80;79.90;98186.03;5036777;28;20706;-70
2023/01/02 06:13:37;;;;;;;6.77;2.50;;;;;;;10.93;78.53;98179.00;5036998;28;20207;-70
2023/01/02 06:16:06;;;;;;;4.73;2.40;;;;;;;11.08;77.41;98177.59;5037452;28;20229;-70
2023/01/02 06:18:35;;;;;;;5.07;2.17;;;;;;;11.07;77.90;98171.47;5036898;28;20211;-70
2023/01/02 06:21:03;;;;;;;5.53;2.33;;;;;;;11.16;76.69;98176.53;5037113;28;20223;-70
2023/01/02 06:23:29;;;;;;;2.87;2.20;;;;;;;11.07;77.68;98183.16;5036855;28;20190;-70
2023/01/02 06:25:56;;;;;;;4.83;2.57;;;;;;;11.04;77.29;98177.22;5036792;28;20228;-71
2023/01/02 06:28:22;;;;;;;7.60;2.43;;;;;;;11.04;76.93;98173.78;5036831;28;20209;-70
2023/01/02 06:30:48;;;;;;;3.63;2.13;;;;;;;10.99;78.46;98189.56;5036406;28;20704;-70
2023/01/02 06:33:15;;;;;;;5.53;2.20;;;;;;;11.06;76.38;98190.31;5036665;28;20220;-70
2023/01/02 06:35:41;;;;;;;4.50;2.33;;;;;;;11.05;76.49;98184.19;5036362;28;20210;-70
2023/01/02 06:38:07;;;;;;;4.67;2.40;;;;;;;11.03;77.82;98194.22;5036347;28;20215;-70
2023/01/02 06:40:34;;;;;;;4.27;2.33;;;;;;;10.93;78.71;98195.75;5037017;28;20213;-70
2023/01/02 06:43:00;;;;;;;2.77;2.30;;;;;;;10.93;78.30;98198.41;5036131;28;20231;-69
2023/01/02 06:45:26;;;;;;;5.70;2.40;;;;;;;10.98;77.49;98201.22;5036144;28;20665;-70
2023/01/02 06:47:59;;;;;;;2.93;2.07;;;;;;;10.96;78.63;98203.31;5036068;28;20682;-70
2023/01/02 06:50:25;;;;;;;5.60;2.63;;;;;;;11.03;76.39;98209.38;5036387;28;20234;-70
2023/01/02 06:52:51;;;;;;;3.33;2.60;;;;;;;11.07;76.03;98215.88;5036266;28;20227;-70
2023/01/02 06:55:18;;;;;;;3.77;2.87;;;;;;;10.93;78.12;98220.53;5035772;28;20215;-70
2023/01/02 06:57:44;;;;;;;4.57;2.20;;;;;;;10.84;78.80;98221.00;5035915;28;20211;-69
2023/01/02 07:00:11;;;;;;;5.33;2.53;;;;;;;10.84;78.15;98215.69;5035852;28;20220;-69
2023/01/02 07:02:37;;;;;;;6.57;2.40;;;;;;;10.80;79.44;98225.13;5035900;28;20226;-69
2023/01/02 07:05:04;;;;;;;3.30;2.20;;;;;;;10.91;76.56;98230.53;5035804;28;20277;-69
2023/01/02 07:07:30;;;;;;;5.33;2.70;;;;;;;10.69;80.71;98231.94;5036245;28;20206;-69
2023/01/02 07:09:57;;;;;;;3.90;2.30;;;;;;;10.61;80.98;98237.53;5035767;28;20222;-69
2023/01/02 07:12:23;;;;;;;5.10;2.43;;;;;;;10.60;82.89;98235.88;5035775;28;20231;-69
2023/01/02 07:14:49;;;;;;;5.63;2.10;;;;;;;10.53;83.19;98243.09;5035796;28;20213;-69
2023/01/02 07:17:16;;;;;;;4.93;2.40;;;;;;;10.68;78.70;98234.84;5035659;28;20202;-70
2023/01/02 07:19:42;;;;;;;4.47;2.27;;;;;;;10.77;77.05;98239.66;5035717;28;20209;-69
2023/01/02 07:22:08;;;;;;;3.27;1.97;;;;;;;10.78;79.48;98251.13;5035521;28;20245;-69
2023/01/02 07:24:35;;;;;;;3.87;2.10;;;;;;;10.82;76.76;98252.31;5035329;28;20683;-69
2023/01/02 07:27:01;;;;;;;4.30;2.17;;;;;;;10.75;80.55;98252.38;5035156;28;20669;-69
2023/01/02 07:29:28;;;;;;;3.83;2.00;;;;;;;10.68;81.31;98259.56;5035253;28;20249;-70
2023/01/02 07:31:55;;;;;;;3.17;1.97;;;;;;;10.59;81.35;98257.38;5035613;28;20228;-69
2023/01/02 07:34:21;;;;;;;3.73;2.23;;;;;;;10.76;79.03;98269.94;5035363;28;20202;-70
2023/01/02 07:36:47;;;;;;;4.07;2.00;;;;;;;10.68;81.25;98275.50;5035421;28;20205;-70
2023/01/02 07:39:14;;;;;;;3.40;2.23;;;;;;;10.79;80.57;98274.84;5035424;28;20290;-70
2023/01/02 07:41:40;;;;;;;4.53;2.27;;;;;;;10.65;81.89;98275.13;5034890;28;20228;-70
2023/01/02 07:44:07;;;;;;;3.40;2.30;;;;;;;10.65;81.99;98285.75;5034974;28;20211;-70
2023/01/02 07:46:33;;;;;;;6.43;2.53;;;;;;;10.59;81.63;98284.75;5035464;28;20206;-70
2023/01/02 07:48:59;;;;;;;5.97;2.40;;;;;;;10.63;81.25;98285.97;5035042;28;20212;-70
2023/01/02 07:51:26;;;;;;;5.37;2.50;;;;;;;10.57;82.36;98294.00;5034842;28;20231;-70
2023/01/02 07:53:52;;;;;;;4.37;2.43;;;;;;;10.61;80.58;98288.03;5034818;28;20214;-70
2023/01/02 07:56:18;;;;;;;3.90;2.50;;;;;;;10.61;81.50;98285.38;5034879;28;20704;-70
2023/01/02 07:58:45;;;;;;;5.17;2.53;;;;;;;10.73;78.81;98294.28;5034942;28;20237;-70
2023/01/02 08:01:12;;;;;;;3.73;2.43;;;;;;;10.86;77.95;98280.13;5034955;28;20222;-69
2023/01/02 08:03:39;;;;;;;5.87;2.27;;;;;;;10.84;79.59;98290.13;5034405;28;20747;-70
2023/01/02 08:06:07;;;;;;;5.63;2.30;;;;;;;10.79;82.12;98290.81;5035015;28;20206;-69
2023/01/02 08:08:34;;;;;;;6.43;2.33;;;;;;;10.77;81.31;98290.19;5034862;28;20203;-69
2023/01/02 08:11:05;;;;;;;5.83;2.70;;;;;;;10.74;81.01;98297.78;5034469;28;20234;-70
2023/01/02 08:13:31;;;;;;;4.07;2.40;;;;;;;10.68;82.98;98291.47;5034779;28;20196;-70
2023/01/02 08:15:57;;;;;;;5.43;2.63;;;;;;;10.66;82.70;98288.22;5034687;28;20210;-70
2023/01/02 08:18:24;;;;;;;8.00;3.00;;;;;;;10.78;80.80;98296.31;5034664;28;20212;-70
2023/01/02 08:20:50;;;;;;;6.20;2.70;;;;;;;10.70;83.98;98304.56;5034707;28;20211;-70
2023/01/02 08:23:16;;;;;;;4.53;3.00;;;;;;;10.72;82.90;98305.13;5034777;28;20201;-70
2023/01/02 08:25:43;;;;;;;5.87;2.67;;;;;;;10.69;84.12;98310.91;5034460;28;20218;-70
2023/01/02 08:28:09;;;;;;;7.00;2.87;;;;;;;10.68;84.99;98310.06;5034055;28;20215;-71
2023/01/02 08:30:36;;;;;;;4.03;2.73;;;;;;;10.75;82.38;98308.22;5033876;28;20230;-72
2023/01/02 08:33:02;;;;;;;5.43;3.77;;;;;;;10.73;83.18;98315.56;5034619;28;20216;-70
2023/01/02 08:35:30;;;;;;;5.63;2.87;;;;;;;10.76;84.17;98314.31;5034235;28;20572;-71
2023/01/02 08:37:56;;;;;;;9.17;3.20;;;;;;;10.85;81.10;98318.34;5034488;28;20207;-70
2023/01/02 08:40:23;;;;;;;4.20;3.00;;;;;;;10.95;79.82;98324.06;5034468;28;20226;-70
2023/01/02 08:42:49;;;;;;;10.90;3.53;;;;;;;11.03;79.42;98326.44;5034308;28;20235;-70
2023/01/02 08:45:16;;;;;;;7.83;3.43;;;;;;;11.08;80.08;98315.94;5033991;28;20206;-70
2023/01/02 08:47:42;;;;;;;4.23;3.20;;;;;;;11.18;77.91;98330.41;5033920;28;20213;-70
2023/01/02 08:50:09;;;;;;;6.17;3.07;;;;;;;11.27;77.23;98324.84;5033888;28;20235;-70
2023/01/02 08:52:36;;;;;;;5.67;3.60;;;;;;;11.39;77.79;98328.44;5034046;28;20228;-70
2023/01/02 08:55:04;;;;;;;4.43;3.20;;;;;;;11.53;76.99;98328.09;5034113;28;20231;-70
2023/01/02 08:57:31;;;;;;;8.13;3.80;;;;;;;11.50;79.32;98323.22;5033597;28;20709;-70
2023/01/02 08:59:57;;;;;;;5.73;3.53;;;;;;;11.52;78.16;98323.00;5033678;28;20204;-70
2023/01/02 09:02:24;;;;;;;5.00;3.33;;;;;;;11.57;77.03;98321.28;5033694;28;20228;-70
2023/01/02 09:04:50;;;;;;;4.37;2.97;;;;;;;11.61;76.84;98321.72;5033458;28;20209;-70
2023/01/02 09:07:17;;;;;;;6.97;3.33;;;;;;;11.63;78.32;98333.78;5033754;28;20216;-70
2023/01/02 09:09:43;;;;;;;6.17;3.30;;;;;;;11.58;78.99;98340.75;5034293;28;20209;-70
2023/01/02 09:12:10;;;;;;;6.87;3.27;;;;;;;11.52;80.00;98331.78;5033458;28;20231;-71
2023/01/02 09:14:36;;;;;;;8.03;3.27;;;;;;;11.60;77.46;98344.03;5033089;28;20210;-71
2023/01/02 09:17:03;;;;;;;7.40;3.23;;;;;;;11.57;79.88;98347.13;5033617;28;20291;-70
2023/01/02 09:19:30;;;;;;;5.93;2.90;;;;;;;11.57;78.62;98350.59;5033454;28;20206;-70
2023/01/02 09:21:56;;;;;;;5.27;2.97;;;;;;;11.54;80.08;98353.69;5030260;28;20233;-71
2023/01/02 09:24:23;;;;;;;5.20;2.73;;;;;;;11.52;80.07;98357.63;5033676;28;20205;-70
2023/01/02 09:26:49;;;;;;;4.73;2.90;;;;;;;11.58;77.66;98360.19;5033539;28;20220;-70
2023/01/02 09:29:16;;;;;;;6.17;2.97;;;;;;;11.65;76.82;98368.16;5032736;28;20293;-70
2023/01/02 09:31:42;;;;;;;6.77;3.23;;;;;;;11.76;77.03;98365.59;5028695;28;20233;-71
2023/01/02 09:34:08;;;;;;;7.60;3.30;;;;;;;11.84;75.75;98369.88;5031832;28;20549;-70
2023/01/02 09:36:35;;;;;;;4.77;2.90;;;;;;;11.88;75.36;98369.19;5033366;28;20210;-70
2023/01/02 09:39:02;;;;;;;4.57;3.20;;;;;;;11.99;72.88;98371.16;5033184;28;20268;-70
2023/01/02 09:41:32;;;;;;;5.87;2.97;;;;;;;12.03;72.03;98374.97;5032558;28;20231;-70
2023/01/02 09:44:17;;;;;;;8.03;3.17;;;;;;;11.98;73.79;98380.16;5033046;28;20236;-70
2023/01/02 09:46:49;;;;;;;6.97;3.30;;;;;;;12.01;73.72;98374.41;5033213;28;20193;-70
2023/01/02 09:49:20;;;;;;;5.77;3.00;;;;;;;12.07;73.76;98375.38;5033170;28;20263;-71
2023/01/02 09:51:47;;;;;;;5.73;3.30;;;;;;;12.13;74.30;98383.31;5033067;28;20240;-70
2023/01/02 09:54:31;;;;;;;8.47;4.10;;;;;;;12.15;75.34;98385.72;5033120;28;20212;-70
2023/01/02 09:57:21;;;;;;;7.23;3.50;;;;;;;12.15;76.32;98385.72;5048017;28;20201;-70
2023/01/02 09:59:47;;;;;;;8.67;4.00;;;;;;;12.12;76.14;98384.31;5048586;28;20194;-71
2023/01/02 10:02:35;;;;;;;5.90;3.57;;;;;;;12.24;74.90;98387.88;5032947;28;20217;-70
2023/01/02 10:05:07;;;;;;;6.33;3.23;;;;;;;12.36;73.26;98387.97;5032726;28;20225;-71
2023/01/02 10:07:44;;;;;;;5.27;3.40;;;;;;;12.44;75.29;98385.81;5032970;28;20198;-70
2023/01/02 10:10:18;;;;;;;6.67;2.73;;;;;;;12.64;69.47;98397.09;5031915;28;20201;-70
2023/01/02 10:13:11;;;;;;;6.60;3.10;;;;;;;12.85;70.20;98393.91;5032967;28;20236;-70
2023/01/02 10:15:42;;;;;;;5.10;2.33;;;;;;;13.03;66.65;98399.25;5031635;28;20202;-70
2023/01/02 10:18:24;;;;;;;5.97;2.23;;;;;;;13.42;61.64;98401.38;5047772;28;20193;-70
2023/01/02 10:20:59;;;;;;;3.20;1.63;;;;;;;14.07;57.15;98397.63;5047223;28;20202;-70
2023/01/02 10:23:33;;;;;;;2.40;1.30;;;;;;;14.04;56.76;98398.09;5033351;28;20185;-71
2023/01/02 10:26:04;;;;;;;3.77;1.63;;;;;;;14.36;54.33;98401.25;5032828;28;20190;-70
2023/01/02 10:28:46;;;;;;;3.30;1.57;;;;;;;14.42;55.04;98408.34;5047865;28;20657;-71
2023/01/02 10:31:20;;;;;;;5.90;1.83;;;;;;;14.51;54.08;98413.09;5032420;28;20598;-71
2023/01/02 10:34:01;;;;;;;5.03;1.40;;;;;;;15.04;49.40;98415.53;5032520;28;20676;-70
2023/01/02 10:36:40;;;;;;;2.20;1.60;;;;;;;15.00;49.80;98423.22;5032634;28;20206;-70
2023/01/02 10:39:12;;;;;;;4.60;1.60;;;;;;;14.92;50.82;98425.47;5032279;28;20186;-71
2023/01/02 10:41:40;;;;;;;4.73;1.67;;;;;;;15.02;50.67;98418.44;5032707;28;20244;-71
2023/01/02 10:44:24;;;;;;;5.03;1.90;;;;;;;14.89;51.80;98418.72;5032752;28;20572;-70
2023/01/02 10:46:51;;;;;;;4.47;1.80;;;;;;;14.84;51.56;98423.16;5032762;28;20191;-70
2023/01/02 10:49:19;;;;;;;3.27;1.77;;;;;;;14.85;51.32;98414.91;5032629;28;20202;-70
2023/01/02 10:51:53;;;;;;;5.00;1.80;;;;;;;14.96;51.37;98410.53;5032032;28;20234;-70
2023/01/02 10:54:19;;;;;;;3.13;1.77;;;;;;;14.94;51.72;98408.13;5034890;28;20209;-70
2023/01/02 10:56:53;;;;;;;4.13;1.50;;;;;;;14.99;52.09;98416.25;5036167;28;20202;-70
2023/01/02 10:59:28;;;;;;;4.80;1.73;;;;;;;15.22;51.16;98412.66;5036370;28;20196;-70
2023/01/02 11:01:58;;;;;;;3.10;1.70;;;;;;;15.32;50.84;98408.31;5036155;28;20227;-70
2023/01/02 11:04:26;;;;;;;4.50;1.70;;;;;;;15.24;49.97;98395.28;5036239;28;20213;-71
2023/01/02 11:07:01;;;;;;;8.83;1.60;;;;;;;15.28;50.56;98396.44;5036080;28;20206;-70
2023/01/02 11:09:30;;;;;;;4.37;1.60;;;;;;;15.24;50.66;98406.00;5035687;28;20208;-70
2023/01/02 11:12:10;;;;;;;4.30;1.20;;;;;;;15.29;50.77;98411.44;5035829;28;20240;-71
2023/01/02 11:14:38;;;;;;;4.53;2.00;;;;;;;15.62;48.87;98410.75;5036556;28;20194;-71
2023/01/02 11:17:41;;;;;;;5.27;2.03;;;;;;;15.66;48.92;98412.72;5036056;28;20297;-70
2023/01/02 11:20:23;;;;;;;5.30;1.80;;;;;;;15.91;47.91;98404.25;5036802;28;20236;-71
2023/01/02 11:22:49;;;;;;;3.63;1.90;;;;;;;16.18;47.22;98397.97;5035485;28;20252;-70
2023/01/02 11:25:24;;;;;;;8.27;1.67;;;;;;;16.31;47.57;98399.50;5035280;28;20214;-70
2023/01/02 11:27:51;;;;;;;6.00;1.97;;;;;;;16.40;47.09;98403.41;5035726;28;20200;-70
2023/01/02 11:30:35;;;;;;;3.47;1.60;;;;;;;16.52;45.53;98391.50;5036267;28;20205;-71
2023/01/02 11:33:25;;;;;;;6.23;1.80;;;;;;;16.53;47.07;98386.94;5035500;28;20240;-71
2023/01/02 11:35:55;;;;;;;5.60;1.77;;;;;;;16.51;46.44;98389.09;5032083;28;20233;-71
2023/01/02 11:38:24;;;;;;;4.70;1.70;;;;;;;16.50;46.23;98388.25;5035678;28;20232;-71
2023/01/02 11:40:54;;;;;;;5.40;1.97;;;;;;;16.54;45.16;98391.25;5035544;28;20202;-71
2023/01/02 11:46:24;;;;;;;6.17;1.97;;;;;;;16.91;42.67;98393.06;5035563;28;20564;-70
2023/01/02 11:48:54;;;;;;;7.73;1.70;;;;;;;17.06;41.61;98392.44;5034040;28;20190;-70
2023/01/02 11:51:21;;;;;;;8.03;2.07;;;;;;;16.85;43.04;98398.63;5036240;28;20580;-70
2023/01/02 11:53:52;;;;;;;6.37;2.00;;;;;;;16.80;43.78;98398.56;5035247;28;20202;-71
2023/01/02 11:56:21;;;;;;;6.40;2.10;;;;;;;16.65;43.99;98393.81;5035284;28;20249;-70